sensor_id;sensor_type;location;lat;lon;timestamp;P1;durP1;ratioP1;P2;durP2;ratioP2
22665;SDS011;11499;49.486;11.104;2022-09-23T00:00:03;6.57;;;5.50;;
22665;SDS011;11499;49.486;11.104;2022-09-23T00:02:29;6.87;;;4.67;;
22665;SDS011;11499;49.486;11.104;2022-09-23T00:04:54;15.20;;;9.50;;
22665;SDS011;11499;49.486;11.104;2022-09-23T00:09:58;5.17;;;3.87;;
22665;SDS011;11499;49.486;11.104;2022-09-23T00:12:24;5.13;;;3.97;;
22665;SDS011;11499;49.486;11.104;2022-09-23T00:14:49;5.73;;;3.90;;
22665;SDS011;11499;49.486;11.104;2022-09-23T00:17:15;6.50;;;3.73;;
22665;SDS011;11499;49.486;11.104;2022-09-23T00:19:40;6.17;;;3.80;;
22665;SDS011;11499;49.486;11.104;2022-09-23T00:22:06;6.77;;;3.73;;
22665;SDS011;11499;49.486;11.104;2022-09-23T00:24:32;6.00;;;3.50;;
22665;SDS011;11499;49.486;11.104;2022-09-23T00:26:58;4.90;;;3.67;;
22665;SDS011;11499;49.486;11.104;2022-09-23T00:29:24;4.10;;;3.70;;
22665;SDS011;11499;49.486;11.104;2022-09-23T00:31:50;6.00;;;3.63;;
22665;SDS011;11499;49.486;11.104;2022-09-23T00:37:21;4.97;;;4.27;;
22665;SDS011;11499;49.486;11.104;2022-09-23T00:39:47;6.83;;;3.13;;
22665;SDS011;11499;49.486;11.104;2022-09-23T00:42:13;7.33;;;3.80;;
22665;SDS011;11499;49.486;11.104;2022-09-23T00:44:48;6.37;;;3.93;;
22665;SDS011;11499;49.486;11.104;2022-09-23T00:47:29;4.40;;;3.50;;
22665;SDS011;11499;49.486;11.104;2022-09-23T00:50:42;4.10;;;3.50;;
22665;SDS011;11499;49.486;11.104;2022-09-23T00:52:51;5.10;;;3.33;;
22665;SDS011;11499;49.486;11.104;2022-09-23T00:55:21;5.87;;;4.10;;
22665;SDS011;11499;49.486;11.104;2022-09-23T00:57:51;3.90;;;3.47;;
22665;SDS011;11499;49.486;11.104;2022-09-23T01:00:20;6.37;;;3.57;;
22665;SDS011;11499;49.486;11.104;2022-09-23T01:04:23;4.07;;;3.63;;
22665;SDS011;11499;49.486;11.104;2022-09-23T01:06:50;3.83;;;3.03;;
22665;SDS011;11499;49.486;11.104;2022-09-23T01:09:16;4.00;;;3.30;;
22665;SDS011;11499;49.486;11.104;2022-09-23T01:11:52;4.17;;;3.50;;
22665;SDS011;11499;49.486;11.104;2022-09-23T01:14:48;4.03;;;3.17;;
22665;SDS011;11499;49.486;11.104;2022-09-23T01:17:30;4.57;;;3.40;;
22665;SDS011;11499;49.486;11.104;2022-09-23T01:20:36;4.50;;;3.30;;
22665;SDS011;11499;49.486;11.104;2022-09-23T01:31:32;3.70;;;3.40;;
22665;SDS011;11499;49.486;11.104;2022-09-23T01:36:50;3.70;;;3.27;;
22665;SDS011;11499;49.486;11.104;2022-09-23T01:39:23;3.80;;;3.23;;
22665;SDS011;11499;49.486;11.104;2022-09-23T01:45:07;5.43;;;3.47;;
22665;SDS011;11499;49.486;11.104;2022-09-23T01:47:41;4.63;;;3.20;;
22665;SDS011;11499;49.486;11.104;2022-09-23T01:50:18;5.57;;;3.63;;
22665;SDS011;11499;49.486;11.104;2022-09-23T01:53:18;4.10;;;3.70;;
22665;SDS011;11499;49.486;11.104;2022-09-23T01:58:03;3.37;;;3.07;;
22665;SDS011;11499;49.486;11.104;2022-09-23T02:00:36;5.40;;;3.37;;
22665;SDS011;11499;49.486;11.104;2022-09-23T02:03:09;4.27;;;3.87;;
22665;SDS011;11499;49.486;11.104;2022-09-23T02:05:47;4.53;;;3.60;;
22665;SDS011;11499;49.486;11.104;2022-09-23T02:08:18;5.03;;;3.70;;
22665;SDS011;11499;49.486;11.104;2022-09-23T02:10:50;4.77;;;4.20;;
22665;SDS011;11499;49.486;11.104;2022-09-23T02:13:43;5.67;;;3.77;;
22665;SDS011;11499;49.486;11.104;2022-09-23T02:16:19;3.60;;;3.13;;
22665;SDS011;11499;49.486;11.104;2022-09-23T02:18:55;5.63;;;3.43;;
22665;SDS011;11499;49.486;11.104;2022-09-23T02:21:22;5.47;;;3.70;;
22665;SDS011;11499;49.486;11.104;2022-09-23T02:25:26;5.97;;;4.10;;
22665;SDS011;11499;49.486;11.104;2022-09-23T02:28:19;4.70;;;3.80;;
22665;SDS011;11499;49.486;11.104;2022-09-23T02:30:54;4.27;;;3.87;;
22665;SDS011;11499;49.486;11.104;2022-09-23T02:36:24;5.17;;;3.87;;
22665;SDS011;11499;49.486;11.104;2022-09-23T02:38:57;5.37;;;3.67;;
22665;SDS011;11499;49.486;11.104;2022-09-23T02:41:29;4.07;;;3.47;;
22665;SDS011;11499;49.486;11.104;2022-09-23T02:44:06;4.03;;;3.63;;
22665;SDS011;11499;49.486;11.104;2022-09-23T02:46:34;5.00;;;3.57;;
22665;SDS011;11499;49.486;11.104;2022-09-23T02:52:11;4.43;;;4.03;;
22665;SDS011;11499;49.486;11.104;2022-09-23T02:54:37;4.70;;;4.30;;
22665;SDS011;11499;49.486;11.104;2022-09-23T02:57:04;4.53;;;4.00;;
22665;SDS011;11499;49.486;11.104;2022-09-23T02:59:32;4.60;;;4.20;;
22665;SDS011;11499;49.486;11.104;2022-09-23T03:02:08;4.97;;;4.00;;
22665;SDS011;11499;49.486;11.104;2022-09-23T03:04:54;4.10;;;3.70;;
22665;SDS011;11499;49.486;11.104;2022-09-23T03:13:29;4.63;;;4.10;;
22665;SDS011;11499;49.486;11.104;2022-09-23T03:19:10;6.73;;;3.87;;
22665;SDS011;11499;49.486;11.104;2022-09-23T03:24:26;4.63;;;4.23;;
22665;SDS011;11499;49.486;11.104;2022-09-23T03:26:55;6.93;;;4.10;;
22665;SDS011;11499;49.486;11.104;2022-09-23T03:29:24;5.00;;;3.97;;
22665;SDS011;11499;49.486;11.104;2022-09-23T03:31:50;4.73;;;4.20;;
22665;SDS011;11499;49.486;11.104;2022-09-23T03:34:19;4.57;;;4.03;;
22665;SDS011;11499;49.486;11.104;2022-09-23T03:36:51;4.43;;;3.97;;
22665;SDS011;11499;49.486;11.104;2022-09-23T03:41:54;8.43;;;5.00;;
22665;SDS011;11499;49.486;11.104;2022-09-23T03:46:26;6.97;;;4.67;;
22665;SDS011;11499;49.486;11.104;2022-09-23T03:51:51;4.73;;;4.33;;
22665;SDS011;11499;49.486;11.104;2022-09-23T03:54:18;5.43;;;4.93;;
22665;SDS011;11499;49.486;11.104;2022-09-23T03:56:44;7.83;;;5.37;;
22665;SDS011;11499;49.486;11.104;2022-09-23T03:59:11;7.37;;;6.07;;
22665;SDS011;11499;49.486;11.104;2022-09-23T04:01:38;5.23;;;4.53;;
22665;SDS011;11499;49.486;11.104;2022-09-23T04:04:05;4.93;;;4.40;;
22665;SDS011;11499;49.486;11.104;2022-09-23T04:06:32;10.43;;;4.30;;
22665;SDS011;11499;49.486;11.104;2022-09-23T04:11:59;4.77;;;2.80;;
22665;SDS011;11499;49.486;11.104;2022-09-23T04:14:24;5.23;;;2.63;;
22665;SDS011;11499;49.486;11.104;2022-09-23T04:16:50;4.27;;;3.37;;
22665;SDS011;11499;49.486;11.104;2022-09-23T04:19:16;7.53;;;4.87;;
22665;SDS011;11499;49.486;11.104;2022-09-23T04:21:42;9.50;;;6.57;;
22665;SDS011;11499;49.486;11.104;2022-09-23T04:24:08;8.27;;;5.73;;
22665;SDS011;11499;49.486;11.104;2022-09-23T04:26:36;6.53;;;4.80;;
22665;SDS011;11499;49.486;11.104;2022-09-23T04:29:02;6.90;;;4.77;;
22665;SDS011;11499;49.486;11.104;2022-09-23T04:31:29;5.80;;;5.13;;
22665;SDS011;11499;49.486;11.104;2022-09-23T04:33:55;4.90;;;4.40;;
22665;SDS011;11499;49.486;11.104;2022-09-23T04:38:44;4.67;;;4.20;;
22665;SDS011;11499;49.486;11.104;2022-09-23T04:41:11;7.13;;;4.57;;
22665;SDS011;11499;49.486;11.104;2022-09-23T04:43:37;6.53;;;5.23;;
22665;SDS011;11499;49.486;11.104;2022-09-23T04:46:03;6.53;;;5.70;;
22665;SDS011;11499;49.486;11.104;2022-09-23T04:48:30;5.57;;;5.03;;
22665;SDS011;11499;49.486;11.104;2022-09-23T04:51:02;6.97;;;6.20;;
22665;SDS011;11499;49.486;11.104;2022-09-23T04:53:29;5.13;;;4.63;;
22665;SDS011;11499;49.486;11.104;2022-09-23T04:56:05;6.67;;;5.83;;
22665;SDS011;11499;49.486;11.104;2022-09-23T04:58:36;5.70;;;5.10;;
22665;SDS011;11499;49.486;11.104;2022-09-23T05:06:28;6.23;;;5.40;;
22665;SDS011;11499;49.486;11.104;2022-09-23T05:08:54;8.07;;;5.90;;
22665;SDS011;11499;49.486;11.104;2022-09-23T05:11:21;6.83;;;6.13;;
22665;SDS011;11499;49.486;11.104;2022-09-23T05:13:48;6.57;;;5.93;;
22665;SDS011;11499;49.486;11.104;2022-09-23T05:16:16;5.27;;;4.73;;
22665;SDS011;11499;49.486;11.104;2022-09-23T05:18:42;6.43;;;4.90;;
22665;SDS011;11499;49.486;11.104;2022-09-23T05:21:09;5.00;;;4.50;;
22665;SDS011;11499;49.486;11.104;2022-09-23T05:23:36;8.57;;;4.63;;
22665;SDS011;11499;49.486;11.104;2022-09-23T05:26:05;6.50;;;4.73;;
22665;SDS011;11499;49.486;11.104;2022-09-23T05:28:32;5.03;;;4.57;;
22665;SDS011;11499;49.486;11.104;2022-09-23T05:32:49;6.57;;;4.80;;
22665;SDS011;11499;49.486;11.104;2022-09-23T05:35:14;6.50;;;5.10;;
22665;SDS011;11499;49.486;11.104;2022-09-23T05:37:40;5.40;;;4.50;;
22665;SDS011;11499;49.486;11.104;2022-09-23T05:40:06;6.30;;;4.73;;
22665;SDS011;11499;49.486;11.104;2022-09-23T05:42:31;4.83;;;4.40;;
22665;SDS011;11499;49.486;11.104;2022-09-23T05:44:57;5.70;;;5.10;;
22665;SDS011;11499;49.486;11.104;2022-09-23T05:47:22;6.73;;;4.90;;
22665;SDS011;11499;49.486;11.104;2022-09-23T05:49:48;5.17;;;4.57;;
22665;SDS011;11499;49.486;11.104;2022-09-23T05:52:13;6.73;;;4.50;;
22665;SDS011;11499;49.486;11.104;2022-09-23T05:54:40;5.33;;;4.70;;
22665;SDS011;11499;49.486;11.104;2022-09-23T05:59:44;5.60;;;4.50;;
22665;SDS011;11499;49.486;11.104;2022-09-23T06:02:11;9.03;;;6.13;;
22665;SDS011;11499;49.486;11.104;2022-09-23T06:04:38;6.80;;;6.00;;
22665;SDS011;11499;49.486;11.104;2022-09-23T06:07:04;6.40;;;4.50;;
22665;SDS011;11499;49.486;11.104;2022-09-23T06:09:29;5.87;;;4.00;;
22665;SDS011;11499;49.486;11.104;2022-09-23T06:11:54;3.87;;;3.57;;
22665;SDS011;11499;49.486;11.104;2022-09-23T06:14:20;6.87;;;4.30;;
22665;SDS011;11499;49.486;11.104;2022-09-23T06:16:45;6.60;;;4.40;;
22665;SDS011;11499;49.486;11.104;2022-09-23T06:19:11;5.90;;;4.23;;
22665;SDS011;11499;49.486;11.104;2022-09-23T06:21:37;6.00;;;4.23;;
22665;SDS011;11499;49.486;11.104;2022-09-23T06:26:05;12.10;;;4.90;;
22665;SDS011;11499;49.486;11.104;2022-09-23T06:28:33;9.83;;;6.90;;
22665;SDS011;11499;49.486;11.104;2022-09-23T06:31:04;5.93;;;5.03;;
22665;SDS011;11499;49.486;11.104;2022-09-23T06:33:32;4.63;;;4.23;;
22665;SDS011;11499;49.486;11.104;2022-09-23T06:35:59;5.67;;;5.07;;
22665;SDS011;11499;49.486;11.104;2022-09-23T06:38:26;5.27;;;4.37;;
22665;SDS011;11499;49.486;11.104;2022-09-23T06:40:53;6.23;;;4.23;;
22665;SDS011;11499;49.486;11.104;2022-09-23T06:43:21;4.80;;;4.30;;
22665;SDS011;11499;49.486;11.104;2022-09-23T06:45:58;6.20;;;4.00;;
22665;SDS011;11499;49.486;11.104;2022-09-23T06:48:24;6.80;;;4.00;;
22665;SDS011;11499;49.486;11.104;2022-09-23T06:53:19;6.90;;;3.93;;
22665;SDS011;11499;49.486;11.104;2022-09-23T06:55:47;8.37;;;4.40;;
22665;SDS011;11499;49.486;11.104;2022-09-23T06:58:21;11.33;;;5.07;;
22665;SDS011;11499;49.486;11.104;2022-09-23T07:00:46;7.13;;;4.23;;
22665;SDS011;11499;49.486;11.104;2022-09-23T07:03:12;6.80;;;4.27;;
22665;SDS011;11499;49.486;11.104;2022-09-23T07:05:37;7.23;;;5.43;;
22665;SDS011;11499;49.486;11.104;2022-09-23T07:08:06;9.80;;;5.30;;
22665;SDS011;11499;49.486;11.104;2022-09-23T07:10:33;4.80;;;4.30;;
22665;SDS011;11499;49.486;11.104;2022-09-23T07:13:00;4.60;;;4.20;;
22665;SDS011;11499;49.486;11.104;2022-09-23T07:18:15;5.60;;;4.40;;
22665;SDS011;11499;49.486;11.104;2022-09-23T07:20:40;4.30;;;3.90;;
22665;SDS011;11499;49.486;11.104;2022-09-23T07:23:06;4.10;;;3.70;;
22665;SDS011;11499;49.486;11.104;2022-09-23T07:25:31;4.80;;;4.40;;
22665;SDS011;11499;49.486;11.104;2022-09-23T07:27:58;5.43;;;4.50;;
22665;SDS011;11499;49.486;11.104;2022-09-23T07:30:24;4.20;;;3.80;;
22665;SDS011;11499;49.486;11.104;2022-09-23T07:32:50;4.70;;;3.90;;
22665;SDS011;11499;49.486;11.104;2022-09-23T07:35:17;5.07;;;4.20;;
22665;SDS011;11499;49.486;11.104;2022-09-23T07:37:42;4.33;;;3.70;;
22665;SDS011;11499;49.486;11.104;2022-09-23T07:40:08;4.87;;;3.60;;
22665;SDS011;11499;49.486;11.104;2022-09-23T07:45:22;4.47;;;4.07;;
22665;SDS011;11499;49.486;11.104;2022-09-23T07:47:49;4.50;;;4.00;;
22665;SDS011;11499;49.486;11.104;2022-09-23T07:50:14;4.47;;;3.77;;
22665;SDS011;11499;49.486;11.104;2022-09-23T07:52:40;4.30;;;3.90;;
22665;SDS011;11499;49.486;11.104;2022-09-23T07:55:06;4.90;;;3.87;;
22665;SDS011;11499;49.486;11.104;2022-09-23T07:57:32;4.30;;;3.90;;
22665;SDS011;11499;49.486;11.104;2022-09-23T07:59:58;5.10;;;3.67;;
22665;SDS011;11499;49.486;11.104;2022-09-23T08:02:25;3.80;;;3.50;;
22665;SDS011;11499;49.486;11.104;2022-09-23T08:04:50;4.50;;;3.70;;
22665;SDS011;11499;49.486;11.104;2022-09-23T08:07:17;4.60;;;3.97;;
22665;SDS011;11499;49.486;11.104;2022-09-23T08:11:08;5.93;;;3.90;;
22665;SDS011;11499;49.486;11.104;2022-09-23T08:13:36;8.87;;;4.23;;
22665;SDS011;11499;49.486;11.104;2022-09-23T08:16:02;5.87;;;5.27;;
22665;SDS011;11499;49.486;11.104;2022-09-23T08:18:28;4.57;;;3.90;;
22665;SDS011;11499;49.486;11.104;2022-09-23T08:20:53;4.57;;;4.17;;
22665;SDS011;11499;49.486;11.104;2022-09-23T08:23:19;3.80;;;3.40;;
22665;SDS011;11499;49.486;11.104;2022-09-23T08:25:45;4.43;;;3.60;;
22665;SDS011;11499;49.486;11.104;2022-09-23T08:28:11;3.77;;;3.40;;
22665;SDS011;11499;49.486;11.104;2022-09-23T08:30:41;4.30;;;3.90;;
22665;SDS011;11499;49.486;11.104;2022-09-23T08:33:08;3.43;;;3.13;;
22665;SDS011;11499;49.486;11.104;2022-09-23T08:38:22;4.63;;;3.33;;
22665;SDS011;11499;49.486;11.104;2022-09-23T08:40:48;5.87;;;3.03;;
22665;SDS011;11499;49.486;11.104;2022-09-23T08:43:19;3.67;;;2.87;;
22665;SDS011;11499;49.486;11.104;2022-09-23T08:45:49;3.93;;;2.90;;
22665;SDS011;11499;49.486;11.104;2022-09-23T08:48:18;3.40;;;3.10;;
22665;SDS011;11499;49.486;11.104;2022-09-23T08:50:51;2.70;;;2.50;;
22665;SDS011;11499;49.486;11.104;2022-09-23T08:53:23;3.93;;;2.97;;
22665;SDS011;11499;49.486;11.104;2022-09-23T08:55:54;3.73;;;3.07;;
22665;SDS011;11499;49.486;11.104;2022-09-23T09:01:34;3.83;;;2.73;;
22665;SDS011;11499;49.486;11.104;2022-09-23T09:04:56;2.37;;;2.17;;
22665;SDS011;11499;49.486;11.104;2022-09-23T09:07:28;3.30;;;2.17;;
22665;SDS011;11499;49.486;11.104;2022-09-23T09:10:02;2.40;;;2.00;;
22665;SDS011;11499;49.486;11.104;2022-09-23T09:12:47;1.87;;;1.77;;
22665;SDS011;11499;49.486;11.104;2022-09-23T09:15:23;3.30;;;2.10;;
22665;SDS011;11499;49.486;11.104;2022-09-23T09:20:39;2.07;;;1.87;;
22665;SDS011;11499;49.486;11.104;2022-09-23T09:23:31;2.30;;;2.10;;
22665;SDS011;11499;49.486;11.104;2022-09-23T09:26:04;1.90;;;1.70;;
22665;SDS011;11499;49.486;11.104;2022-09-23T09:29:58;2.20;;;2.00;;
22665;SDS011;11499;49.486;11.104;2022-09-23T09:32:35;2.17;;;1.80;;
22665;SDS011;11499;49.486;11.104;2022-09-23T09:35:58;2.40;;;1.90;;
22665;SDS011;11499;49.486;11.104;2022-09-23T09:38:04;1.77;;;1.57;;
22665;SDS011;11499;49.486;11.104;2022-09-23T09:40:30;2.70;;;1.70;;
22665;SDS011;11499;49.486;11.104;2022-09-23T09:42:57;1.70;;;1.60;;
22665;SDS011;11499;49.486;11.104;2022-09-23T09:45:56;2.53;;;2.33;;
22665;SDS011;11499;49.486;11.104;2022-09-23T09:48:37;1.97;;;1.77;;
22665;SDS011;11499;49.486;11.104;2022-09-23T09:51:20;2.00;;;1.80;;
22665;SDS011;11499;49.486;11.104;2022-09-23T09:53:47;3.97;;;2.57;;
22665;SDS011;11499;49.486;11.104;2022-09-23T09:56:16;2.53;;;1.93;;
22665;SDS011;11499;49.486;11.104;2022-09-23T10:02:55;2.03;;;1.80;;
22665;SDS011;11499;49.486;11.104;2022-09-23T10:05:32;5.37;;;2.37;;
22665;SDS011;11499;49.486;11.104;2022-09-23T10:10:51;2.57;;;2.30;;
22665;SDS011;11499;49.486;11.104;2022-09-23T10:13:23;2.47;;;1.90;;
22665;SDS011;11499;49.486;11.104;2022-09-23T10:15:51;2.30;;;2.10;;
22665;SDS011;11499;49.486;11.104;2022-09-23T10:20:59;1.87;;;1.77;;
22665;SDS011;11499;49.486;11.104;2022-09-23T10:29:01;2.53;;;1.90;;
22665;SDS011;11499;49.486;11.104;2022-09-23T10:31:41;2.25;;;2.05;;
22665;SDS011;11499;49.486;11.104;2022-09-23T10:37:13;2.53;;;2.08;;
22665;SDS011;11499;49.486;11.104;2022-09-23T10:40:00;2.50;;;2.30;;
22665;SDS011;11499;49.486;11.104;2022-09-23T10:46:04;2.10;;;1.90;;
22665;SDS011;11499;49.486;11.104;2022-09-23T10:54:38;1.95;;;1.75;;
22665;SDS011;11499;49.486;11.104;2022-09-23T10:57:00;1.90;;;1.80;;
22665;SDS011;11499;49.486;11.104;2022-09-23T11:05:09;1.80;;;1.70;;
22665;SDS011;11499;49.486;11.104;2022-09-23T11:07:54;2.00;;;1.67;;
22665;SDS011;11499;49.486;11.104;2022-09-23T11:10:46;2.00;;;1.70;;
22665;SDS011;11499;49.486;11.104;2022-09-23T11:13:27;11.00;;;10.50;;
22665;SDS011;11499;49.486;11.104;2022-09-23T11:25:37;1.70;;;1.60;;
22665;SDS011;11499;49.486;11.104;2022-09-23T11:34:33;1.95;;;1.70;;
22665;SDS011;11499;49.486;11.104;2022-09-23T11:37:17;1.90;;;1.80;;
22665;SDS011;11499;49.486;11.104;2022-09-23T11:39:56;1.95;;;1.75;;
22665;SDS011;11499;49.486;11.104;2022-09-23T11:45:31;2.78;;;1.42;;
22665;SDS011;11499;49.486;11.104;2022-09-23T11:48:02;1.50;;;1.40;;
22665;SDS011;11499;49.486;11.104;2022-09-23T11:56:08;1.70;;;1.60;;
22665;SDS011;11499;49.486;11.104;2022-09-23T11:59:00;2.13;;;1.55;;
22665;SDS011;11499;49.486;11.104;2022-09-23T12:01:50;1.90;;;1.70;;
22665;SDS011;11499;49.486;11.104;2022-09-23T12:04:32;1.65;;;1.50;;
22665;SDS011;11499;49.486;11.104;2022-09-23T12:07:04;2.17;;;1.58;;
22665;SDS011;11499;49.486;11.104;2022-09-23T12:12:17;1.50;;;1.40;;
22665;SDS011;11499;49.486;11.104;2022-09-23T12:14:59;3.05;;;1.60;;
22665;SDS011;11499;49.486;11.104;2022-09-23T12:20:41;2.42;;;1.98;;
22665;SDS011;11499;49.486;11.104;2022-09-23T12:25:47;2.50;;;1.60;;
22665;SDS011;11499;49.486;11.104;2022-09-23T12:28:19;2.08;;;1.90;;
22665;SDS011;11499;49.486;11.104;2022-09-23T12:30:49;2.80;;;2.50;;
22665;SDS011;11499;49.486;11.104;2022-09-23T12:33:19;1.65;;;1.55;;
22665;SDS011;11499;49.486;11.104;2022-09-23T12:35:48;1.70;;;1.60;;
22665;SDS011;11499;49.486;11.104;2022-09-23T12:39:53;2.80;;;1.65;;
22665;SDS011;11499;49.486;11.104;2022-09-23T12:42:33;1.83;;;1.50;;
22665;SDS011;11499;49.486;11.104;2022-09-23T12:50:49;1.92;;;1.77;;
22665;SDS011;11499;49.486;11.104;2022-09-23T12:55:57;1.95;;;1.70;;
22665;SDS011;11499;49.486;11.104;2022-09-23T13:01:06;4.10;;;1.80;;
22665;SDS011;11499;49.486;11.104;2022-09-23T13:06:27;1.70;;;1.60;;
22665;SDS011;11499;49.486;11.104;2022-09-23T13:09:20;3.10;;;1.45;;
22665;SDS011;11499;49.486;11.104;2022-09-23T13:11:48;1.65;;;1.55;;
22665;SDS011;11499;49.486;11.104;2022-09-23T13:14:18;2.85;;;1.50;;
22665;SDS011;11499;49.486;11.104;2022-09-23T13:16:46;1.80;;;1.40;;
22665;SDS011;11499;49.486;11.104;2022-09-23T13:24:40;3.63;;;2.00;;
22665;SDS011;11499;49.486;11.104;2022-09-23T13:27:14;2.13;;;1.50;;
22665;SDS011;11499;49.486;11.104;2022-09-23T13:32:25;1.70;;;1.60;;
22665;SDS011;11499;49.486;11.104;2022-09-23T13:34:57;1.65;;;1.48;;
22665;SDS011;11499;49.486;11.104;2022-09-23T13:37:29;3.15;;;1.58;;
22665;SDS011;11499;49.486;11.104;2022-09-23T13:40:08;1.67;;;1.58;;
22665;SDS011;11499;49.486;11.104;2022-09-23T13:42:41;5.72;;;2.42;;
22665;SDS011;11499;49.486;11.104;2022-09-23T13:45:14;2.65;;;1.60;;
22665;SDS011;11499;49.486;11.104;2022-09-23T13:47:42;2.50;;;1.70;;
22665;SDS011;11499;49.486;11.104;2022-09-23T13:50:21;1.77;;;1.67;;
22665;SDS011;11499;49.486;11.104;2022-09-23T13:52:51;1.83;;;1.73;;
22665;SDS011;11499;49.486;11.104;2022-09-23T13:57:56;1.60;;;1.50;;
22665;SDS011;11499;49.486;11.104;2022-09-23T14:00:31;1.77;;;1.63;;
22665;SDS011;11499;49.486;11.104;2022-09-23T14:03:01;1.80;;;1.70;;
22665;SDS011;11499;49.486;11.104;2022-09-23T14:05:39;2.17;;;1.98;;
22665;SDS011;11499;49.486;11.104;2022-09-23T14:08:06;2.10;;;2.00;;
22665;SDS011;11499;49.486;11.104;2022-09-23T14:10:32;2.53;;;1.80;;
22665;SDS011;11499;49.486;11.104;2022-09-23T14:12:58;2.05;;;1.85;;
22665;SDS011;11499;49.486;11.104;2022-09-23T14:15:23;1.90;;;1.67;;
22665;SDS011;11499;49.486;11.104;2022-09-23T14:18:00;2.10;;;1.90;;
22665;SDS011;11499;49.486;11.104;2022-09-23T14:23:19;2.03;;;1.83;;
22665;SDS011;11499;49.486;11.104;2022-09-23T14:25:45;3.88;;;2.65;;
22665;SDS011;11499;49.486;11.104;2022-09-23T14:28:12;1.80;;;1.70;;
22665;SDS011;11499;49.486;11.104;2022-09-23T14:30:41;1.60;;;1.50;;
22665;SDS011;11499;49.486;11.104;2022-09-23T14:33:12;3.40;;;1.70;;
22665;SDS011;11499;49.486;11.104;2022-09-23T14:35:44;1.75;;;1.65;;
22665;SDS011;11499;49.486;11.104;2022-09-23T14:38:26;3.00;;;2.08;;
22665;SDS011;11499;49.486;11.104;2022-09-23T14:41:17;3.33;;;1.88;;
22665;SDS011;11499;49.486;11.104;2022-09-23T14:43:49;1.90;;;1.80;;
22665;SDS011;11499;49.486;11.104;2022-09-23T14:48:06;2.00;;;1.80;;
22665;SDS011;11499;49.486;11.104;2022-09-23T14:50:34;2.97;;;1.63;;
22665;SDS011;11499;49.486;11.104;2022-09-23T14:53:01;2.83;;;1.88;;
22665;SDS011;11499;49.486;11.104;2022-09-23T14:55:27;2.00;;;1.77;;
22665;SDS011;11499;49.486;11.104;2022-09-23T14:58:02;5.32;;;5.03;;
22665;SDS011;11499;49.486;11.104;2022-09-23T15:00:29;5.68;;;5.18;;
22665;SDS011;11499;49.486;11.104;2022-09-23T15:02:56;2.30;;;2.10;;
22665;SDS011;11499;49.486;11.104;2022-09-23T15:05:38;2.30;;;2.10;;
22665;SDS011;11499;49.486;11.104;2022-09-23T15:08:07;2.13;;;2.00;;
22665;SDS011;11499;49.486;11.104;2022-09-23T15:13:40;1.80;;;1.70;;
22665;SDS011;11499;49.486;11.104;2022-09-23T15:16:10;2.20;;;2.00;;
22665;SDS011;11499;49.486;11.104;2022-09-23T15:18:38;2.25;;;2.05;;
22665;SDS011;11499;49.486;11.104;2022-09-23T15:26:10;1.80;;;1.70;;
22665;SDS011;11499;49.486;11.104;2022-09-23T15:28:40;3.13;;;2.40;;
22665;SDS011;11499;49.486;11.104;2022-09-23T15:31:09;4.75;;;4.32;;
22665;SDS011;11499;49.486;11.104;2022-09-23T15:33:39;2.65;;;2.13;;
22665;SDS011;11499;49.486;11.104;2022-09-23T15:37:37;1.80;;;1.70;;
22665;SDS011;11499;49.486;11.104;2022-09-23T15:40:03;2.08;;;1.73;;
22665;SDS011;11499;49.486;11.104;2022-09-23T15:42:29;2.22;;;1.90;;
22665;SDS011;11499;49.486;11.104;2022-09-23T15:44:54;2.25;;;1.75;;
22665;SDS011;11499;49.486;11.104;2022-09-23T15:47:21;2.88;;;1.70;;
22665;SDS011;11499;49.486;11.104;2022-09-23T15:49:47;3.60;;;2.00;;
22665;SDS011;11499;49.486;11.104;2022-09-23T15:52:12;4.35;;;2.20;;
22665;SDS011;11499;49.486;11.104;2022-09-23T15:54:39;2.83;;;2.10;;
22665;SDS011;11499;49.486;11.104;2022-09-23T15:57:06;1.88;;;1.70;;
22665;SDS011;11499;49.486;11.104;2022-09-23T16:02:14;1.90;;;1.80;;
22665;SDS011;11499;49.486;11.104;2022-09-23T16:04:45;1.90;;;1.77;;
22665;SDS011;11499;49.486;11.104;2022-09-23T16:07:16;2.10;;;1.90;;
22665;SDS011;11499;49.486;11.104;2022-09-23T16:09:43;6.03;;;2.17;;
22665;SDS011;11499;49.486;11.104;2022-09-23T16:12:09;3.35;;;1.80;;
22665;SDS011;11499;49.486;11.104;2022-09-23T16:14:36;2.00;;;1.80;;
22665;SDS011;11499;49.486;11.104;2022-09-23T16:17:01;2.78;;;2.58;;
22665;SDS011;11499;49.486;11.104;2022-09-23T16:19:28;2.25;;;2.03;;
22665;SDS011;11499;49.486;11.104;2022-09-23T16:21:58;4.30;;;1.70;;
22665;SDS011;11499;49.486;11.104;2022-09-23T16:27:12;2.95;;;1.80;;
22665;SDS011;11499;49.486;11.104;2022-09-23T16:29:41;2.25;;;2.05;;
22665;SDS011;11499;49.486;11.104;2022-09-23T16:32:07;2.17;;;1.90;;
22665;SDS011;11499;49.486;11.104;2022-09-23T16:34:32;2.70;;;1.77;;
22665;SDS011;11499;49.486;11.104;2022-09-23T16:36:58;2.00;;;1.90;;
22665;SDS011;11499;49.486;11.104;2022-09-23T16:39:24;2.00;;;1.90;;
22665;SDS011;11499;49.486;11.104;2022-09-23T16:41:49;2.15;;;1.90;;
22665;SDS011;11499;49.486;11.104;2022-09-23T16:44:16;5.95;;;3.15;;
22665;SDS011;11499;49.486;11.104;2022-09-23T16:46:41;5.43;;;3.88;;
22665;SDS011;11499;49.486;11.104;2022-09-23T16:52:06;4.85;;;3.53;;
22665;SDS011;11499;49.486;11.104;2022-09-23T16:54:33;4.18;;;3.58;;
22665;SDS011;11499;49.486;11.104;2022-09-23T16:57:01;4.57;;;3.97;;
22665;SDS011;11499;49.486;11.104;2022-09-23T16:59:26;8.47;;;5.00;;
22665;SDS011;11499;49.486;11.104;2022-09-23T17:02:12;4.10;;;3.70;;
22665;SDS011;11499;49.486;11.104;2022-09-23T17:04:56;5.13;;;3.80;;
22665;SDS011;11499;49.486;11.104;2022-09-23T17:07:21;10.07;;;5.37;;
22665;SDS011;11499;49.486;11.104;2022-09-23T17:09:47;5.23;;;4.53;;
22665;SDS011;11499;49.486;11.104;2022-09-23T17:12:16;7.57;;;5.23;;
22665;SDS011;11499;49.486;11.104;2022-09-23T17:14:48;7.33;;;5.57;;
22665;SDS011;11499;49.486;11.104;2022-09-23T17:19:51;4.97;;;4.57;;
22665;SDS011;11499;49.486;11.104;2022-09-23T17:22:17;6.13;;;4.60;;
22665;SDS011;11499;49.486;11.104;2022-09-23T17:24:42;5.97;;;4.37;;
22665;SDS011;11499;49.486;11.104;2022-09-23T17:27:08;4.63;;;3.90;;
22665;SDS011;11499;49.486;11.104;2022-09-23T17:29:33;5.17;;;4.00;;
22665;SDS011;11499;49.486;11.104;2022-09-23T17:31:59;5.50;;;3.70;;
22665;SDS011;11499;49.486;11.104;2022-09-23T17:34:24;8.17;;;4.00;;
22665;SDS011;11499;49.486;11.104;2022-09-23T17:36:50;6.40;;;3.90;;
22665;SDS011;11499;49.486;11.104;2022-09-23T17:39:15;4.33;;;3.20;;
22665;SDS011;11499;49.486;11.104;2022-09-23T17:41:41;4.63;;;3.23;;
22665;SDS011;11499;49.486;11.104;2022-09-23T17:46:21;5.90;;;3.27;;
22665;SDS011;11499;49.486;11.104;2022-09-23T17:48:47;8.33;;;3.70;;
22665;SDS011;11499;49.486;11.104;2022-09-23T17:51:16;4.20;;;3.47;;
22665;SDS011;11499;49.486;11.104;2022-09-23T17:53:46;6.37;;;3.87;;
22665;SDS011;11499;49.486;11.104;2022-09-23T17:56:13;4.83;;;3.73;;
22665;SDS011;11499;49.486;11.104;2022-09-23T17:58:41;6.63;;;3.90;;
22665;SDS011;11499;49.486;11.104;2022-09-23T18:01:08;4.47;;;4.00;;
22665;SDS011;11499;49.486;11.104;2022-09-23T18:03:35;7.77;;;5.23;;
22665;SDS011;11499;49.486;11.104;2022-09-23T18:06:08;5.23;;;4.67;;
22665;SDS011;11499;49.486;11.104;2022-09-23T18:08:38;6.07;;;4.03;;
22665;SDS011;11499;49.486;11.104;2022-09-23T18:12:52;5.40;;;4.57;;
22665;SDS011;11499;49.486;11.104;2022-09-23T18:15:18;8.30;;;5.10;;
22665;SDS011;11499;49.486;11.104;2022-09-23T18:17:43;8.80;;;4.60;;
22665;SDS011;11499;49.486;11.104;2022-09-23T18:20:09;6.83;;;4.20;;